sensor_id;sensor_type;location;lat;lon;timestamp;pressure;altitude;pressure_sealevel;temperature;humidity
59487;BME280;45298;54.918;73.504;2023-07-13T00:01:16;99406.69;;;28.40;37.52
59487;BME280;45298;54.918;73.504;2023-07-13T00:03:45;99408.13;;;28.92;36.12
59487;BME280;45298;54.918;73.504;2023-07-13T00:06:14;99404.72;;;29.39;35.77
59487;BME280;45298;54.918;73.504;2023-07-13T00:08:43;99411.97;;;29.93;35.76
59487;BME280;45298;54.918;73.504;2023-07-13T00:11:12;99396.44;;;29.93;35.44
59487;BME280;45298;54.918;73.504;2023-07-13T00:13:43;99403.19;;;29.43;36.06
59487;BME280;45298;54.918;73.504;2023-07-13T00:16:13;99397.13;;;28.99;36.65
59487;BME280;45298;54.918;73.504;2023-07-13T00:18:42;99379.16;;;28.60;37.31
59487;BME280;45298;54.918;73.504;2023-07-13T00:21:11;99390.53;;;28.39;37.92
59487;BME280;45298;54.918;73.504;2023-07-13T00:23:41;99390.41;;;28.15;38.36
59487;BME280;45298;54.918;73.504;2023-07-13T00:26:11;99385.31;;;28.00;39.80
59487;BME280;45298;54.918;73.504;2023-07-13T00:28:41;99396.50;;;27.92;39.90
59487;BME280;45298;54.918;73.504;2023-07-13T00:31:12;99404.75;;;27.85;40.63
59487;BME280;45298;54.918;73.504;2023-07-13T00:33:43;99359.00;;;27.43;38.67
59487;BME280;45298;54.918;73.504;2023-07-13T00:36:12;99386.22;;;27.50;41.69
59487;BME280;45298;54.918;73.504;2023-07-13T00:38:42;99393.13;;;27.45;39.96
59487;BME280;45298;54.918;73.504;2023-07-13T00:41:11;99362.50;;;27.25;39.82
59487;BME280;45298;54.918;73.504;2023-07-13T00:43:40;99383.56;;;27.36;39.22
59487;BME280;45298;54.918;73.504;2023-07-13T00:48:51;99383.31;;;28.14;39.76
59487;BME280;45298;54.918;73.504;2023-07-13T00:51:25;99386.38;;;29.16;38.79
59487;BME280;45298;54.918;73.504;2023-07-13T00:53:57;99385.50;;;29.93;36.14
59487;BME280;45298;54.918;73.504;2023-07-13T00:56:28;99386.84;;;30.55;34.96
59487;BME280;45298;54.918;73.504;2023-07-13T00:59:00;99392.94;;;31.20;34.89
59487;BME280;45298;54.918;73.504;2023-07-13T01:01:30;99387.13;;;31.68;33.54
59487;BME280;45298;54.918;73.504;2023-07-13T01:04:00;99396.78;;;32.10;32.41
59487;BME280;45298;54.918;73.504;2023-07-13T01:06:30;99398.41;;;32.50;32.39
59487;BME280;45298;54.918;73.504;2023-07-13T01:08:59;99380.84;;;32.74;31.29
59487;BME280;45298;54.918;73.504;2023-07-13T01:11:28;99375.38;;;33.01;31.64
59487;BME280;45298;54.918;73.504;2023-07-13T01:13:57;99388.78;;;33.30;30.61
59487;BME280;45298;54.918;73.504;2023-07-13T01:16:31;99403.16;;;33.70;30.33
59487;BME280;45298;54.918;73.504;2023-07-13T01:19:06;99426.50;;;34.05;30.30
59487;BME280;45298;54.918;73.504;2023-07-13T01:21:36;99425.69;;;34.10;29.94
59487;BME280;45298;54.918;73.504;2023-07-13T01:24:06;99405.06;;;34.07;29.37
59487;BME280;45298;54.918;73.504;2023-07-13T01:26:35;99402.09;;;34.19;30.57
59487;BME280;45298;54.918;73.504;2023-07-13T01:29:07;99409.81;;;34.22;30.08
59487;BME280;45298;54.918;73.504;2023-07-13T01:31:38;99371.25;;;34.17;30.72
59487;BME280;45298;54.918;73.504;2023-07-13T01:34:07;99417.94;;;34.60;31.35
59487;BME280;45298;54.918;73.504;2023-07-13T01:36:37;99403.66;;;34.63;31.22
59487;BME280;45298;54.918;73.504;2023-07-13T01:39:08;99397.88;;;34.59;30.59
59487;BME280;45298;54.918;73.504;2023-07-13T01:41:37;99390.97;;;34.62;30.70
59487;BME280;45298;54.918;73.504;2023-07-13T01:44:06;99382.47;;;34.74;30.52
59487;BME280;45298;54.918;73.504;2023-07-13T01:46:35;99379.72;;;34.84;30.25
59487;BME280;45298;54.918;73.504;2023-07-13T01:49:04;99364.28;;;34.83;30.73
59487;BME280;45298;54.918;73.504;2023-07-13T01:51:33;99338.34;;;34.48;30.31
59487;BME280;45298;54.918;73.504;2023-07-13T01:54:03;99368.69;;;34.74;30.48
59487;BME280;45298;54.918;73.504;2023-07-13T01:56:33;99365.38;;;34.56;30.39
59487;BME280;45298;54.918;73.504;2023-07-13T01:59:02;99353.78;;;34.54;30.71
59487;BME280;45298;54.918;73.504;2023-07-13T02:01:31;99354.91;;;34.63;30.97
59487;BME280;45298;54.918;73.504;2023-07-13T02:04:00;99356.00;;;34.62;30.44
59487;BME280;45298;54.918;73.504;2023-07-13T02:06:33;99341.13;;;34.58;30.09
59487;BME280;45298;54.918;73.504;2023-07-13T02:09:02;99343.22;;;34.30;29.99
59487;BME280;45298;54.918;73.504;2023-07-13T02:11:33;99351.69;;;34.13;30.88
59487;BME280;45298;54.918;73.504;2023-07-13T02:14:02;99350.59;;;34.14;31.76
59487;BME280;45298;54.918;73.504;2023-07-13T02:16:32;99335.97;;;34.03;30.21
59487;BME280;45298;54.918;73.504;2023-07-13T02:19:01;99338.47;;;34.05;30.78
59487;BME280;45298;54.918;73.504;2023-07-13T02:21:30;99341.47;;;34.03;31.47
59487;BME280;45298;54.918;73.504;2023-07-13T02:23:59;99338.19;;;34.01;30.34
59487;BME280;45298;54.918;73.504;2023-07-13T02:26:31;99333.78;;;34.05;31.38
59487;BME280;45298;54.918;73.504;2023-07-13T02:29:00;99316.19;;;34.12;31.81
59487;BME280;45298;54.918;73.504;2023-07-13T02:31:29;99286.50;;;34.24;31.13
59487;BME280;45298;54.918;73.504;2023-07-13T02:34:01;99313.28;;;34.44;30.99
59487;BME280;45298;54.918;73.504;2023-07-13T02:36:30;99311.94;;;34.57;31.63
59487;BME280;45298;54.918;73.504;2023-07-13T02:39:04;99306.97;;;34.54;30.17
59487;BME280;45298;54.918;73.504;2023-07-13T02:41:36;99318.75;;;34.39;31.53
59487;BME280;45298;54.918;73.504;2023-07-13T02:44:05;99277.94;;;34.15;30.89
59487;BME280;45298;54.918;73.504;2023-07-13T02:46:36;99288.41;;;34.13;30.18
59487;BME280;45298;54.918;73.504;2023-07-13T02:49:06;99306.88;;;34.23;31.36
59487;BME280;45298;54.918;73.504;2023-07-13T02:51:35;99320.38;;;34.35;31.76
59487;BME280;45298;54.918;73.504;2023-07-13T02:54:04;99324.59;;;34.48;30.54
59487;BME280;45298;54.918;73.504;2023-07-13T02:56:34;99314.69;;;34.57;30.97
59487;BME280;45298;54.918;73.504;2023-07-13T02:59:07;99314.94;;;34.45;30.31
59487;BME280;45298;54.918;73.504;2023-07-13T03:01:37;99304.50;;;34.47;30.25
59487;BME280;45298;54.918;73.504;2023-07-13T03:04:08;99307.78;;;34.44;31.51
59487;BME280;45298;54.918;73.504;2023-07-13T03:06:38;99315.81;;;34.72;32.02
59487;BME280;45298;54.918;73.504;2023-07-13T03:09:06;99299.84;;;34.74;31.80
59487;BME280;45298;54.918;73.504;2023-07-13T03:11:40;99315.56;;;34.94;30.42
59487;BME280;45298;54.918;73.504;2023-07-13T03:14:19;99311.72;;;35.00;29.73
59487;BME280;45298;54.918;73.504;2023-07-13T03:16:48;99303.75;;;34.99;29.82
59487;BME280;45298;54.918;73.504;2023-07-13T03:19:17;99312.53;;;34.90;28.85
59487;BME280;45298;54.918;73.504;2023-07-13T03:21:49;99311.41;;;34.91;30.36
59487;BME280;45298;54.918;73.504;2023-07-13T03:24:18;99308.41;;;35.03;29.18
59487;BME280;45298;54.918;73.504;2023-07-13T03:26:47;99305.66;;;35.14;28.02
59487;BME280;45298;54.918;73.504;2023-07-13T03:29:18;99315.28;;;35.21;29.09
59487;BME280;45298;54.918;73.504;2023-07-13T03:31:50;99312.22;;;35.33;29.92
59487;BME280;45298;54.918;73.504;2023-07-13T03:34:21;99296.78;;;35.32;28.13
59487;BME280;45298;54.918;73.504;2023-07-13T03:36:50;99292.13;;;35.48;28.47
59487;BME280;45298;54.918;73.504;2023-07-13T03:39:19;99268.69;;;35.46;28.76
59487;BME280;45298;54.918;73.504;2023-07-13T03:41:52;99307.50;;;35.75;27.68
59487;BME280;45298;54.918;73.504;2023-07-13T03:44:21;99295.06;;;35.78;28.31
59487;BME280;45298;54.918;73.504;2023-07-13T03:46:54;99296.72;;;35.79;28.99
59487;BME280;45298;54.918;73.504;2023-07-13T03:49:23;99292.00;;;35.84;27.96
59487;BME280;45298;54.918;73.504;2023-07-13T03:51:53;99290.06;;;35.95;28.84
59487;BME280;45298;54.918;73.504;2023-07-13T03:54:22;99294.66;;;36.15;29.36
59487;BME280;45298;54.918;73.504;2023-07-13T03:56:54;99297.88;;;36.28;27.40
59487;BME280;45298;54.918;73.504;2023-07-13T03:59:24;99279.09;;;36.30;28.83
59487;BME280;45298;54.918;73.504;2023-07-13T04:01:53;99290.34;;;36.44;27.01
59487;BME280;45298;54.918;73.504;2023-07-13T04:04:23;99293.59;;;36.56;26.81
59487;BME280;45298;54.918;73.504;2023-07-13T04:06:53;99286.94;;;36.63;27.41
59487;BME280;45298;54.918;73.504;2023-07-13T04:09:22;99302.25;;;36.84;27.07
59487;BME280;45298;54.918;73.504;2023-07-13T04:11:51;99306.03;;;36.94;26.91
59487;BME280;45298;54.918;73.504;2023-07-13T04:14:20;99304.84;;;37.05;28.18
59487;BME280;45298;54.918;73.504;2023-07-13T04:16:49;99302.28;;;37.14;26.58
59487;BME280;45298;54.918;73.504;2023-07-13T04:19:18;99305.91;;;37.09;27.28
59487;BME280;45298;54.918;73.504;2023-07-13T04:21:47;99291.28;;;37.09;27.64
59487;BME280;45298;54.918;73.504;2023-07-13T04:24:16;99287.94;;;37.12;27.34
59487;BME280;45298;54.918;73.504;2023-07-13T04:26:45;99296.59;;;37.29;26.78
59487;BME280;45298;54.918;73.504;2023-07-13T04:29:14;99300.97;;;37.35;26.93
59487;BME280;45298;54.918;73.504;2023-07-13T04:31:43;99311.06;;;37.50;27.85
59487;BME280;45298;54.918;73.504;2023-07-13T04:34:12;99276.31;;;37.39;27.25
59487;BME280;45298;54.918;73.504;2023-07-13T04:36:41;99308.13;;;37.66;27.41
59487;BME280;45298;54.918;73.504;2023-07-13T04:39:10;99312.47;;;37.72;28.82
59487;BME280;45298;54.918;73.504;2023-07-13T04:41:39;99278.00;;;37.64;26.78
59487;BME280;45298;54.918;73.504;2023-07-13T04:44:08;99305.38;;;37.90;27.45
59487;BME280;45298;54.918;73.504;2023-07-13T04:46:37;99305.28;;;37.71;24.86
59487;BME280;45298;54.918;73.504;2023-07-13T04:49:06;99307.25;;;37.71;26.12
59487;BME280;45298;54.918;73.504;2023-07-13T04:51:35;99312.00;;;37.89;26.44
59487;BME280;45298;54.918;73.504;2023-07-13T04:54:04;99298.16;;;37.94;24.81
59487;BME280;45298;54.918;73.504;2023-07-13T04:56:33;99298.41;;;37.93;24.00
59487;BME280;45298;54.918;73.504;2023-07-13T04:59:02;99306.25;;;38.10;26.15
59487;BME280;45298;54.918;73.504;2023-07-13T05:01:31;99313.44;;;38.11;26.32
59487;BME280;45298;54.918;73.504;2023-07-13T05:04:00;99311.25;;;38.08;26.38
59487;BME280;45298;54.918;73.504;2023-07-13T05:06:29;99316.19;;;38.11;24.25
59487;BME280;45298;54.918;73.504;2023-07-13T05:09:00;99294.03;;;38.11;24.46
59487;BME280;45298;54.918;73.504;2023-07-13T05:11:29;99306.94;;;38.21;24.86
59487;BME280;45298;54.918;73.504;2023-07-13T05:13:58;99296.81;;;38.30;25.17
59487;BME280;45298;54.918;73.504;2023-07-13T05:16:27;99288.41;;;38.41;25.15
59487;BME280;45298;54.918;73.504;2023-07-13T05:18:57;99298.50;;;38.50;25.30
59487;BME280;45298;54.918;73.504;2023-07-13T05:21:25;99305.06;;;38.54;24.44
59487;BME280;45298;54.918;73.504;2023-07-13T05:23:55;99300.44;;;38.69;26.33
59487;BME280;45298;54.918;73.504;2023-07-13T05:26:27;99294.09;;;38.82;26.51
59487;BME280;45298;54.918;73.504;2023-07-13T05:28:56;99259.47;;;38.66;26.50
59487;BME280;45298;54.918;73.504;2023-07-13T05:31:27;99275.38;;;38.74;24.97
59487;BME280;45298;54.918;73.504;2023-07-13T05:33:56;99278.78;;;38.71;25.66
59487;BME280;45298;54.918;73.504;2023-07-13T05:36:25;99272.38;;;38.37;24.65
59487;BME280;45298;54.918;73.504;2023-07-13T05:38:54;99266.88;;;38.32;25.11
59487;BME280;45298;54.918;73.504;2023-07-13T05:41:23;99270.69;;;38.36;24.69
59487;BME280;45298;54.918;73.504;2023-07-13T05:43:52;99260.69;;;38.41;25.02
59487;BME280;45298;54.918;73.504;2023-07-13T05:46:21;99264.81;;;38.43;25.95
59487;BME280;45298;54.918;73.504;2023-07-13T05:48:50;99272.59;;;38.41;25.21
59487;BME280;45298;54.918;73.504;2023-07-13T05:51:19;99265.47;;;38.54;25.16
59487;BME280;45298;54.918;73.504;2023-07-13T05:53:48;99256.09;;;38.69;24.68
59487;BME280;45298;54.918;73.504;2023-07-13T05:56:17;99262.69;;;38.73;24.46
59487;BME280;45298;54.918;73.504;2023-07-13T05:58:48;99254.06;;;38.75;24.13
59487;BME280;45298;54.918;73.504;2023-07-13T06:01:17;99263.38;;;38.98;24.09
59487;BME280;45298;54.918;73.504;2023-07-13T06:03:47;99248.44;;;38.80;24.67
59487;BME280;45298;54.918;73.504;2023-07-13T06:06:16;99251.63;;;38.87;25.19
59487;BME280;45298;54.918;73.504;2023-07-13T06:08:45;99235.13;;;38.63;24.60
59487;BME280;45298;54.918;73.504;2023-07-13T06:11:18;99251.34;;;38.89;26.67
59487;BME280;45298;54.918;73.504;2023-07-13T06:13:47;99240.19;;;39.08;24.35
59487;BME280;45298;54.918;73.504;2023-07-13T06:16:17;99231.47;;;39.14;25.24
59487;BME280;45298;54.918;73.504;2023-07-13T06:18:46;99200.34;;;39.04;24.69
59487;BME280;45298;54.918;73.504;2023-07-13T06:21:17;99229.94;;;39.08;24.45
59487;BME280;45298;54.918;73.504;2023-07-13T06:23:49;99231.41;;;39.34;24.61
59487;BME280;45298;54.918;73.504;2023-07-13T06:26:26;99230.56;;;39.33;24.11
59487;BME280;45298;54.918;73.504;2023-07-13T06:28:56;99221.34;;;39.52;24.74
59487;BME280;45298;54.918;73.504;2023-07-13T06:31:25;99235.91;;;39.85;24.74
59487;BME280;45298;54.918;73.504;2023-07-13T06:33:54;99205.69;;;39.84;24.08
59487;BME280;45298;54.918;73.504;2023-07-13T06:36:23;99232.16;;;40.04;23.23
59487;BME280;45298;54.918;73.504;2023-07-13T06:38:52;99229.09;;;40.19;23.45
59487;BME280;45298;54.918;73.504;2023-07-13T06:41:21;99224.72;;;40.27;24.03
59487;BME280;45298;54.918;73.504;2023-07-13T06:43:51;99212.81;;;40.13;22.76
59487;BME280;45298;54.918;73.504;2023-07-13T06:46:21;99209.53;;;40.11;23.51
59487;BME280;45298;54.918;73.504;2023-07-13T06:48:53;99216.34;;;40.04;23.29
59487;BME280;45298;54.918;73.504;2023-07-13T06:51:22;99180.41;;;39.71;24.26
59487;BME280;45298;54.918;73.504;2023-07-13T06:53:52;99208.09;;;40.13;24.50
59487;BME280;45298;54.918;73.504;2023-07-13T06:56:21;99205.88;;;40.38;23.70
59487;BME280;45298;54.918;73.504;2023-07-13T06:58:50;99203.16;;;40.47;22.15
59487;BME280;45298;54.918;73.504;2023-07-13T07:01:19;99210.69;;;40.55;23.06
59487;BME280;45298;54.918;73.504;2023-07-13T07:03:51;99192.88;;;40.56;22.15
59487;BME280;45298;54.918;73.504;2023-07-13T07:06:23;99172.66;;;40.33;21.78
59487;BME280;45298;54.918;73.504;2023-07-13T07:08:52;99196.69;;;40.38;20.93
59487;BME280;45298;54.918;73.504;2023-07-13T07:11:24;99193.53;;;40.53;23.72
59487;BME280;45298;54.918;73.504;2023-07-13T07:13:54;99170.66;;;40.56;23.43
59487;BME280;45298;54.918;73.504;2023-07-13T07:16:24;99199.47;;;40.83;21.94
59487;BME280;45298;54.918;73.504;2023-07-13T07:18:53;99191.84;;;40.66;20.99
59487;BME280;45298;54.918;73.504;2023-07-13T07:21:23;99188.09;;;40.71;21.29
59487;BME280;45298;54.918;73.504;2023-07-13T07:23:52;99194.91;;;40.87;20.71
59487;BME280;45298;54.918;73.504;2023-07-13T07:26:22;99209.69;;;41.05;22.11
59487;BME280;45298;54.918;73.504;2023-07-13T07:28:55;99201.06;;;41.07;19.74
59487;BME280;45298;54.918;73.504;2023-07-13T07:31:27;99199.41;;;41.06;21.16
59487;BME280;45298;54.918;73.504;2023-07-13T07:33:59;99190.78;;;41.16;20.78
59487;BME280;45298;54.918;73.504;2023-07-13T07:36:27;99203.94;;;41.33;21.22
59487;BME280;45298;54.918;73.504;2023-07-13T07:38:59;99192.34;;;41.40;20.48
59487;BME280;45298;54.918;73.504;2023-07-13T07:41:28;99205.13;;;41.41;19.31
59487;BME280;45298;54.918;73.504;2023-07-13T07:44:00;99199.38;;;41.37;20.44
59487;BME280;45298;54.918;73.504;2023-07-13T07:46:30;99195.13;;;41.40;21.38
59487;BME280;45298;54.918;73.504;2023-07-13T07:49:02;99192.38;;;41.49;21.07
59487;BME280;45298;54.918;73.504;2023-07-13T07:51:31;99194.81;;;41.50;20.92
59487;BME280;45298;54.918;73.504;2023-07-13T07:54:00;99200.75;;;41.58;21.12
59487;BME280;45298;54.918;73.504;2023-07-13T07:56:31;99165.81;;;41.34;20.34
59487;BME280;45298;54.918;73.504;2023-07-13T07:59:03;99195.63;;;41.42;23.37
59487;BME280;45298;54.918;73.504;2023-07-13T08:01:36;99192.00;;;41.33;21.89
59487;BME280;45298;54.918;73.504;2023-07-13T08:04:26;99206.63;;;41.07;22.29
59487;BME280;45298;54.918;73.504;2023-07-13T08:06:58;99186.09;;;40.94;21.47
59487;BME280;45298;54.918;73.504;2023-07-13T08:09:28;99189.06;;;40.98;19.36
59487;BME280;45298;54.918;73.504;2023-07-13T08:11:58;99199.97;;;41.17;20.97
59487;BME280;45298;54.918;73.504;2023-07-13T08:14:30;99187.88;;;41.21;19.94
59487;BME280;45298;54.918;73.504;2023-07-13T08:17:22;99195.78;;;41.37;20.33
59487;BME280;45298;54.918;73.504;2023-07-13T08:19:51;99192.50;;;41.44;19.60
59487;BME280;45298;54.918;73.504;2023-07-13T08:22:21;99178.09;;;41.42;18.64
59487;BME280;45298;54.918;73.504;2023-07-13T08:24:50;99178.69;;;41.21;19.37
59487;BME280;45298;54.918;73.504;2023-07-13T08:27:25;99190.50;;;41.18;18.61
59487;BME280;45298;54.918;73.504;2023-07-13T08:29:54;99183.97;;;41.31;19.91
59487;BME280;45298;54.918;73.504;2023-07-13T08:32:24;99169.91;;;41.28;20.35
59487;BME280;45298;54.918;73.504;2023-07-13T08:34:56;99172.50;;;41.33;19.78
59487;BME280;45298;54.918;73.504;2023-07-13T08:37:25;99171.16;;;41.13;18.02
59487;BME280;45298;54.918;73.504;2023-07-13T08:39:54;99179.16;;;41.14;19.57
59487;BME280;45298;54.918;73.504;2023-07-13T08:42:36;99174.91;;;41.08;20.23
59487;BME280;45298;54.918;73.504;2023-07-13T08:48:05;99170.56;;;40.93;20.28
59487;BME280;45298;54.918;73.504;2023-07-13T08:53:55;99182.63;;;40.57;19.00
59487;BME280;45298;54.918;73.504;2023-07-13T08:56:28;99167.03;;;40.47;19.34
59487;BME280;45298;54.918;73.504;2023-07-13T08:59:09;99169.25;;;40.36;19.59
59487;BME280;45298;54.918;73.504;2023-07-13T09:04:16;99178.78;;;40.44;19.43
59487;BME280;45298;54.918;73.504;2023-07-13T09:07:12;99176.84;;;40.53;19.28
59487;BME280;45298;54.918;73.504;2023-07-13T09:10:03;99167.25;;;40.59;20.15
59487;BME280;45298;54.918;73.504;2023-07-13T09:12:50;99171.88;;;40.64;19.21
59487;BME280;45298;54.918;73.504;2023-07-13T09:15:40;99177.44;;;40.64;20.13
59487;BME280;45298;54.918;73.504;2023-07-13T09:18:48;99183.19;;;40.68;20.17
59487;BME280;45298;54.918;73.504;2023-07-13T09:21:31;99172.88;;;40.68;18.71
59487;BME280;45298;54.918;73.504;2023-07-13T09:24:37;99169.53;;;40.57;19.95
59487;BME280;45298;54.918;73.504;2023-07-13T09:27:15;99159.66;;;40.51;19.06
59487;BME280;45298;54.918;73.504;2023-07-13T09:30:09;99164.53;;;40.45;20.42
59487;BME280;45298;54.918;73.504;2023-07-13T09:32:51;99145.31;;;40.26;18.33
59487;BME280;45298;54.918;73.504;2023-07-13T09:35:24;99140.81;;;39.94;18.67
59487;BME280;45298;54.918;73.504;2023-07-13T09:38:03;99142.81;;;39.79;18.30
59487;BME280;45298;54.918;73.504;2023-07-13T09:43:13;99145.41;;;39.98;20.54
59487;BME280;45298;54.918;73.504;2023-07-13T09:45:45;99140.59;;;40.13;21.15
59487;BME280;45298;54.918;73.504;2023-07-13T09:48:17;99144.19;;;40.27;20.77
59487;BME280;45298;54.918;73.504;2023-07-13T09:50:47;99152.81;;;40.48;19.43
59487;BME280;45298;54.918;73.504;2023-07-13T09:53:18;99122.47;;;40.29;19.71
59487;BME280;45298;54.918;73.504;2023-07-13T09:55:48;99120.69;;;40.33;19.29
59487;BME280;45298;54.918;73.504;2023-07-13T09:58:23;99144.53;;;40.34;19.95
59487;BME280;45298;54.918;73.504;2023-07-13T10:01:03;99136.84;;;40.31;19.23
59487;BME280;45298;54.918;73.504;2023-07-13T10:03:36;99150.31;;;40.38;20.00
59487;BME280;45298;54.918;73.504;2023-07-13T10:06:15;99136.72;;;40.37;19.09
59487;BME280;45298;54.918;73.504;2023-07-13T10:08:46;99131.38;;;40.40;18.85
59487;BME280;45298;54.918;73.504;2023-07-13T10:11:23;99145.44;;;40.44;18.97
59487;BME280;45298;54.918;73.504;2023-07-13T10:14:00;99137.56;;;40.37;20.11
59487;BME280;45298;54.918;73.504;2023-07-13T10:16:33;99128.19;;;40.33;19.31
59487;BME280;45298;54.918;73.504;2023-07-13T10:19:07;99116.41;;;40.27;20.45
59487;BME280;45298;54.918;73.504;2023-07-13T10:21:53;99114.94;;;40.30;19.56
59487;BME280;45298;54.918;73.504;2023-07-13T10:24:31;99086.19;;;40.12;19.31
59487;BME280;45298;54.918;73.504;2023-07-13T10:27:29;99110.97;;;40.22;18.78
59487;BME280;45298;54.918;73.504;2023-07-13T10:32:33;99113.84;;;40.17;20.57
59487;BME280;45298;54.918;73.504;2023-07-13T10:35:04;99117.75;;;40.16;19.32
59487;BME280;45298;54.918;73.504;2023-07-13T10:38:01;99107.78;;;40.15;20.08
59487;BME280;45298;54.918;73.504;2023-07-13T10:40:55;99102.66;;;40.22;19.63
59487;BME280;45298;54.918;73.504;2023-07-13T10:43:33;99107.69;;;40.20;19.15
59487;BME280;45298;54.918;73.504;2023-07-13T10:46:12;99089.63;;;40.09;19.36
59487;BME280;45298;54.918;73.504;2023-07-13T10:48:43;99061.38;;;39.84;19.52
59487;BME280;45298;54.918;73.504;2023-07-13T10:51:16;99097.06;;;39.99;20.25
59487;BME280;45298;54.918;73.504;2023-07-13T10:53:47;99084.94;;;39.95;19.50
59487;BME280;45298;54.918;73.504;2023-07-13T10:56:28;99080.28;;;39.82;19.44
59487;BME280;45298;54.918;73.504;2023-07-13T10:59:10;99088.50;;;39.73;20.15
59487;BME280;45298;54.918;73.504;2023-07-13T11:02:05;99093.09;;;39.55;19.38
59487;BME280;45298;54.918;73.504;2023-07-13T11:04:43;99076.88;;;39.48;20.84
59487;BME280;45298;54.918;73.504;2023-07-13T11:07:29;99092.13;;;39.37;20.02
59487;BME280;45298;54.918;73.504;2023-07-13T11:10:02;99082.84;;;39.13;20.98
59487;BME280;45298;54.918;73.504;2023-07-13T11:15:29;99075.47;;;38.81;21.10
59487;BME280;45298;54.918;73.504;2023-07-13T11:18:03;99069.72;;;38.77;20.86
59487;BME280;45298;54.918;73.504;2023-07-13T11:20:36;99075.47;;;38.81;20.70
59487;BME280;45298;54.918;73.504;2023-07-13T11:23:18;99079.00;;;38.87;21.32
59487;BME280;45298;54.918;73.504;2023-07-13T11:25:50;99086.28;;;38.96;20.99
59487;BME280;45298;54.918;73.504;2023-07-13T11:28:23;99081.25;;;38.98;21.46
59487;BME280;45298;54.918;73.504;2023-07-13T11:39:04;99065.66;;;39.03;22.15
59487;BME280;45298;54.918;73.504;2023-07-13T11:41:41;99061.09;;;39.07;21.65
59487;BME280;45298;54.918;73.504;2023-07-13T11:44:18;99062.03;;;39.02;21.29
59487;BME280;45298;54.918;73.504;2023-07-13T11:46:51;99054.97;;;38.82;20.79
59487;BME280;45298;54.918;73.504;2023-07-13T11:49:24;99051.25;;;38.59;21.06
59487;BME280;45298;54.918;73.504;2023-07-13T11:51:55;99050.50;;;38.39;21.76
59487;BME280;45298;54.918;73.504;2023-07-13T11:54:46;99054.47;;;38.33;22.40
59487;BME280;45298;54.918;73.504;2023-07-13T11:59:56;99036.59;;;38.11;22.36
59487;BME280;45298;54.918;73.504;2023-07-13T12:02:39;99050.59;;;38.01;22.59
59487;BME280;45298;54.918;73.504;2023-07-13T12:05:13;99035.53;;;37.74;22.67
59487;BME280;45298;54.918;73.504;2023-07-13T12:07:44;99046.81;;;37.58;22.85
59487;BME280;45298;54.918;73.504;2023-07-13T12:10:27;99030.13;;;37.25;22.34
59487;BME280;45298;54.918;73.504;2023-07-13T12:13:05;99036.47;;;37.07;22.43
59487;BME280;45298;54.918;73.504;2023-07-13T12:15:40;99026.22;;;36.83;23.78
59487;BME280;45298;54.918;73.504;2023-07-13T12:18:21;99028.63;;;36.65;22.99
59487;BME280;45298;54.918;73.504;2023-07-13T12:20:51;99038.09;;;36.59;23.95
59487;BME280;45298;54.918;73.504;2023-07-13T12:23:33;99024.19;;;36.40;23.93
59487;BME280;45298;54.918;73.504;2023-07-13T12:26:06;99032.25;;;36.36;24.54
59487;BME280;45298;54.918;73.504;2023-07-13T12:28:39;99023.47;;;36.29;24.14
59487;BME280;45298;54.918;73.504;2023-07-13T12:31:40;99019.59;;;36.30;25.55
59487;BME280;45298;54.918;73.504;2023-07-13T12:36:56;99019.47;;;36.16;26.43
59487;BME280;45298;54.918;73.504;2023-07-13T12:39:34;99012.16;;;36.01;27.24
59487;BME280;45298;54.918;73.504;2023-07-13T12:42:28;99015.78;;;35.91;26.16
59487;BME280;45298;54.918;73.504;2023-07-13T12:45:22;99015.66;;;35.77;26.49
59487;BME280;45298;54.918;73.504;2023-07-13T12:48:19;98998.06;;;35.68;26.39
59487;BME280;45298;54.918;73.504;2023-07-13T12:51:03;99006.38;;;35.63;26.74
59487;BME280;45298;54.918;73.504;2023-07-13T12:53:40;98995.19;;;35.49;27.14
59487;BME280;45298;54.918;73.504;2023-07-13T12:56:26;98996.00;;;35.49;27.50
59487;BME280;45298;54.918;73.504;2023-07-13T12:59:04;98996.00;;;35.44;27.82
59487;BME280;45298;54.918;73.504;2023-07-13T13:01:35;98994.94;;;35.40;28.59
59487;BME280;45298;54.918;73.504;2023-07-13T13:04:09;98989.72;;;35.33;28.01
59487;BME280;45298;54.918;73.504;2023-07-13T13:06:39;98976.84;;;35.23;26.95
59487;BME280;45298;54.918;73.504;2023-07-13T13:09:15;98971.59;;;35.27;27.44
59487;BME280;45298;54.918;73.504;2023-07-13T13:11:44;98966.13;;;35.17;27.84
59487;BME280;45298;54.918;73.504;2023-07-13T13:14:13;98978.53;;;35.19;27.44
59487;BME280;45298;54.918;73.504;2023-07-13T13:16:48;98939.00;;;34.94;28.38
59487;BME280;45298;54.918;73.504;2023-07-13T13:19:23;98971.16;;;35.09;28.73
59487;BME280;45298;54.918;73.504;2023-07-13T13:21:54;98972.50;;;35.12;27.88
59487;BME280;45298;54.918;73.504;2023-07-13T13:24:27;98967.53;;;35.14;29.34
59487;BME280;45298;54.918;73.504;2023-07-13T13:26:57;98978.25;;;35.21;29.32
59487;BME280;45298;54.918;73.504;2023-07-13T13:29:26;98977.94;;;35.22;28.67
59487;BME280;45298;54.918;73.504;2023-07-13T13:31:55;98975.47;;;35.26;29.22
59487;BME280;45298;54.918;73.504;2023-07-13T13:34:28;98941.75;;;34.94;29.74
59487;BME280;45298;54.918;73.504;2023-07-13T13:36:57;98978.81;;;35.18;30.58
59487;BME280;45298;54.918;73.504;2023-07-13T13:39:34;98981.84;;;35.16;31.22
59487;BME280;45298;54.918;73.504;2023-07-13T13:42:05;98964.56;;;35.05;31.67
59487;BME280;45298;54.918;73.504;2023-07-13T13:44:34;98974.19;;;35.08;31.02
59487;BME280;45298;54.918;73.504;2023-07-13T13:47:03;98961.03;;;35.00;31.89
59487;BME280;45298;54.918;73.504;2023-07-13T13:49:31;98983.31;;;35.03;32.00
59487;BME280;45298;54.918;73.504;2023-07-13T13:52:01;98943.47;;;34.75;32.75